createdAt,value
2019-03-20T00:00:44.999Z,2.80
2019-03-20T00:03:13.862Z,2.80
2019-03-20T00:05:42.685Z,2.80
2019-03-20T00:08:12.048Z,2.80
2019-03-20T00:10:40.916Z,2.80
2019-03-20T00:13:09.717Z,2.80
2019-03-20T00:15:39.451Z,2.80
2019-03-20T00:18:08.700Z,2.80
2019-03-20T00:20:39.401Z,2.80
2019-03-20T00:23:11.226Z,2.70
2019-03-20T00:25:40.039Z,2.70
2019-03-20T00:28:09.791Z,2.70
2019-03-20T00:30:38.564Z,2.70
2019-03-20T00:33:07.971Z,2.70
2019-03-20T00:35:37.637Z,2.60
2019-03-20T00:38:07.871Z,2.60
2019-03-20T00:40:38.054Z,2.60
2019-03-20T00:43:09.040Z,2.60
2019-03-20T00:45:39.044Z,2.60
2019-03-20T00:48:07.840Z,2.60
2019-03-20T00:50:37.774Z,2.50
2019-03-20T00:53:13.758Z,2.60
2019-03-20T00:55:45.672Z,2.50
2019-03-20T00:58:15.417Z,2.50
2019-03-20T01:00:45.266Z,2.40
2019-03-20T01:03:14.799Z,2.40
2019-03-20T01:05:43.705Z,2.40
2019-03-20T01:08:14.026Z,2.40
2019-03-20T01:10:43.504Z,2.40
2019-03-20T01:13:12.787Z,2.30
2019-03-20T01:15:42.738Z,2.30
2019-03-20T01:18:13.231Z,2.30
2019-03-20T01:20:44.475Z,2.30
2019-03-20T01:23:13.923Z,2.30
2019-03-20T01:25:42.746Z,2.30
2019-03-20T01:28:14.035Z,2.30
2019-03-20T01:30:44.039Z,2.20
2019-03-20T01:33:15.256Z,2.20
2019-03-20T01:35:47.350Z,2.20
2019-03-20T01:38:30.974Z,2.20
2019-03-20T01:41:01.619Z,2.20
2019-03-20T01:43:33.603Z,2.20
2019-03-20T01:46:04.046Z,2.20
2019-03-20T01:48:33.718Z,2.20
2019-03-20T01:51:20.787Z,2.20
2019-03-20T01:53:52.780Z,2.20
2019-03-20T01:56:22.797Z,2.20
2019-03-20T01:59:05.214Z,2.20
2019-03-20T02:01:35.696Z,2.20
2019-03-20T02:04:05.230Z,2.10
2019-03-20T02:06:34.530Z,2.10
2019-03-20T02:09:05.462Z,2.10
2019-03-20T02:11:34.971Z,2.10
2019-03-20T02:14:04.224Z,2.00
2019-03-20T02:16:34.506Z,2.00
2019-03-20T02:19:04.127Z,2.00
2019-03-20T02:21:35.147Z,2.00
2019-03-20T02:24:09.061Z,2.00
2019-03-20T02:26:39.493Z,1.90
2019-03-20T02:29:13.110Z,1.90
2019-03-20T02:31:49.747Z,1.90
2019-03-20T02:34:21.562Z,1.90
2019-03-20T02:36:51.107Z,1.90
2019-03-20T02:39:20.567Z,1.90
2019-03-20T02:41:50.763Z,1.90
2019-03-20T02:44:21.860Z,1.80
2019-03-20T02:46:51.257Z,1.80
2019-03-20T02:49:21.717Z,1.80
2019-03-20T02:51:51.713Z,1.80
2019-03-20T02:54:21.480Z,1.80
2019-03-20T02:56:51.032Z,1.70
2019-03-20T02:59:21.028Z,1.70
2019-03-20T03:01:50.949Z,1.70
2019-03-20T03:04:21.214Z,1.70
2019-03-20T03:06:51.234Z,1.70
2019-03-20T03:09:21.731Z,1.70
2019-03-20T03:11:52.773Z,1.70
2019-03-20T03:14:23.587Z,1.70
2019-03-20T03:16:53.708Z,1.70
2019-03-20T03:19:22.875Z,1.70
2019-03-20T03:21:52.186Z,1.70
2019-03-20T03:24:22.307Z,1.70
2019-03-20T03:26:52.613Z,1.70
2019-03-20T03:29:22.788Z,1.60
2019-03-20T03:31:54.774Z,1.60
2019-03-20T03:34:24.654Z,1.60
2019-03-20T03:36:54.225Z,1.60
2019-03-20T03:39:25.115Z,1.60
2019-03-20T03:41:55.554Z,1.60
2019-03-20T03:44:25.119Z,1.60
2019-03-20T03:47:02.523Z,1.60
2019-03-20T03:49:32.608Z,1.60
2019-03-20T03:52:02.178Z,1.60
2019-03-20T03:54:30.957Z,1.60
2019-03-20T03:57:00.257Z,1.60
2019-03-20T03:59:30.539Z,1.50
2019-03-20T04:01:59.898Z,1.50
2019-03-20T04:04:28.863Z,1.50
2019-03-20T04:06:57.672Z,1.50
2019-03-20T04:09:27.114Z,1.50
2019-03-20T04:11:56.106Z,1.50
2019-03-20T04:14:25.078Z,1.50
2019-03-20T04:16:54.102Z,1.50
2019-03-20T04:19:24.633Z,1.50
2019-03-20T04:21:54.944Z,1.50
2019-03-20T04:24:24.935Z,1.40
2019-03-20T04:26:55.114Z,1.50
2019-03-20T04:29:26.104Z,1.50
2019-03-20T04:31:56.141Z,1.40
2019-03-20T04:34:28.800Z,1.40
2019-03-20T04:37:00.229Z,1.40
2019-03-20T04:39:30.768Z,1.40
2019-03-20T04:42:00.056Z,1.40
2019-03-20T04:44:30.218Z,1.40
2019-03-20T04:46:59.962Z,1.40
2019-03-20T04:49:29.819Z,1.30
2019-03-20T04:51:58.591Z,1.30
2019-03-20T04:54:29.125Z,1.30
2019-03-20T04:56:58.078Z,1.30
2019-03-20T04:59:27.042Z,1.20
2019-03-20T05:01:56.143Z,1.30
2019-03-20T05:04:26.191Z,1.30
2019-03-20T05:06:59.145Z,1.30
2019-03-20T05:09:26.766Z,1.30
2019-03-20T05:11:56.015Z,1.30
2019-03-20T05:14:27.260Z,1.30
2019-03-20T05:16:56.778Z,1.30
2019-03-20T05:19:29.135Z,1.20
2019-03-20T05:21:59.802Z,1.20
2019-03-20T05:24:33.789Z,1.20
2019-03-20T05:27:09.604Z,1.20
2019-03-20T05:29:39.789Z,1.20
2019-03-20T05:32:09.942Z,1.20
2019-03-20T05:34:39.740Z,1.30
2019-03-20T05:37:11.066Z,1.30
2019-03-20T05:39:40.700Z,1.30
2019-03-20T05:42:14.149Z,1.30
2019-03-20T05:44:43.916Z,1.30
2019-03-20T05:47:15.850Z,1.30
2019-03-20T05:49:46.556Z,1.30
2019-03-20T05:52:17.006Z,1.30
2019-03-20T05:54:48.426Z,1.30
2019-03-20T05:57:18.178Z,1.30
2019-03-20T05:59:47.620Z,1.40
2019-03-20T06:02:17.489Z,1.40
2019-03-20T06:04:48.152Z,1.40
2019-03-20T06:07:21.924Z,1.40
2019-03-20T06:09:50.041Z,1.40
2019-03-20T06:12:21.468Z,1.40
2019-03-20T06:14:50.887Z,1.50
2019-03-20T06:17:20.170Z,1.50
2019-03-20T06:19:49.850Z,1.60
2019-03-20T06:22:19.789Z,1.60
2019-03-20T06:24:48.527Z,1.60
2019-03-20T06:27:17.944Z,1.70
2019-03-20T06:29:48.230Z,1.70
2019-03-20T06:32:17.889Z,1.80
2019-03-20T06:34:48.950Z,1.90
2019-03-20T06:37:18.466Z,2.00
2019-03-20T06:39:53.455Z,2.10
2019-03-20T06:42:22.531Z,2.20
2019-03-20T06:44:51.366Z,2.20
2019-03-20T06:47:20.212Z,2.30
2019-03-20T06:49:49.828Z,2.40
2019-03-20T06:52:19.236Z,2.50
2019-03-20T06:54:48.654Z,2.60
2019-03-20T06:57:19.621Z,2.70
2019-03-20T07:00:25.582Z,2.80
2019-03-20T07:03:00.003Z,2.80
2019-03-20T07:05:50.186Z,2.90
2019-03-20T07:08:21.282Z,3.00
2019-03-20T07:11:07.942Z,3.10
2019-03-20T07:13:38.907Z,3.20
2019-03-20T07:16:07.765Z,3.30
2019-03-20T07:18:36.899Z,3.30
2019-03-20T07:21:07.988Z,3.40
2019-03-20T07:23:36.795Z,3.60
2019-03-20T07:26:05.607Z,3.70
2019-03-20T07:28:34.406Z,3.80
2019-03-20T07:31:14.340Z,3.90
2019-03-20T07:33:34.261Z,3.90
2019-03-20T07:36:03.729Z,4.00
2019-03-20T07:38:32.801Z,4.10
2019-03-20T07:41:02.018Z,4.20
2019-03-20T07:43:32.200Z,4.30
2019-03-20T07:46:01.896Z,4.40
2019-03-20T07:48:31.886Z,4.40
2019-03-20T07:51:01.795Z,4.50
2019-03-20T07:53:32.334Z,4.60
2019-03-20T07:56:02.950Z,4.70
2019-03-20T07:58:33.667Z,4.70
2019-03-20T08:01:05.451Z,4.80
2019-03-20T08:03:35.938Z,5.00
2019-03-20T08:06:05.081Z,5.10
2019-03-20T08:08:34.315Z,5.20
2019-03-20T08:11:04.304Z,5.40
2019-03-20T08:13:33.469Z,5.50
2019-03-20T08:16:04.036Z,5.70
2019-03-20T08:18:33.076Z,6.00
2019-03-20T08:21:02.770Z,6.10
2019-03-20T08:23:31.758Z,6.20
2019-03-20T08:26:01.168Z,6.30
2019-03-20T08:28:30.316Z,6.30
2019-03-20T08:31:00.975Z,6.40
2019-03-20T08:33:31.979Z,6.40
2019-03-20T08:36:02.525Z,6.50
2019-03-20T08:38:33.002Z,6.70
2019-03-20T08:41:03.951Z,6.90
2019-03-20T08:43:34.033Z,7.30
2019-03-20T08:46:04.110Z,7.90
2019-03-20T08:48:33.174Z,8.60
2019-03-20T08:51:04.277Z,9.60
2019-03-20T08:53:34.136Z,10.40
2019-03-20T08:56:03.985Z,11.10
2019-03-20T08:58:33.298Z,11.70
2019-03-20T09:01:04.234Z,12.10
2019-03-20T09:03:34.756Z,12.40
2019-03-20T09:06:04.989Z,12.40
2019-03-20T09:08:34.935Z,12.00
2019-03-20T09:11:06.851Z,11.90
2019-03-20T09:13:36.857Z,11.90
2019-03-20T09:16:08.918Z,11.60
2019-03-20T09:18:38.708Z,11.50
2019-03-20T09:21:07.977Z,11.50
2019-03-20T09:23:40.774Z,11.30
2019-03-20T09:26:09.909Z,11.40
2019-03-20T09:28:42.259Z,11.50
2019-03-20T09:46:02.588Z,11.50
2019-03-20T09:48:31.470Z,11.60
2019-03-20T09:51:00.479Z,11.90
2019-03-20T09:53:29.325Z,11.90
2019-03-20T09:55:58.181Z,12.00
2019-03-20T09:58:27.110Z,12.10
2019-03-20T10:01:04.832Z,12.10
2019-03-20T10:03:33.684Z,12.10
2019-03-20T10:06:02.536Z,12.20
2019-03-20T10:08:31.407Z,12.20
2019-03-20T10:11:00.481Z,12.30
2019-03-20T10:13:29.587Z,12.40
2019-03-20T10:15:58.668Z,12.40
2019-03-20T10:18:27.537Z,12.40
2019-03-20T10:20:56.507Z,12.50
2019-03-20T10:23:25.597Z,12.40
2019-03-20T10:25:54.440Z,12.60
2019-03-20T10:28:23.419Z,12.80
2019-03-20T10:30:53.260Z,12.80
2019-03-20T10:33:22.337Z,12.90
2019-03-20T10:35:51.158Z,12.80
2019-03-20T10:38:20.062Z,12.80
2019-03-20T10:40:48.966Z,12.80
2019-03-20T10:43:17.876Z,12.90
2019-03-20T10:45:49.933Z,12.90
2019-03-20T10:48:18.996Z,13.10
2019-03-20T10:50:48.037Z,13.00
2019-03-20T10:53:17.047Z,13.10
2019-03-20T10:55:45.979Z,13.10
2019-03-20T10:58:14.792Z,13.10
2019-03-20T11:00:43.933Z,13.20
2019-03-20T11:03:12.818Z,13.30
2019-03-20T11:05:41.747Z,13.10
2019-03-20T11:08:12.942Z,13.10
2019-03-20T11:10:41.400Z,13.30
2019-03-20T11:13:10.607Z,13.60
2019-03-20T11:15:39.387Z,13.40
2019-03-20T11:18:08.393Z,13.50
2019-03-20T11:20:37.363Z,13.40
2019-03-20T11:23:06.282Z,13.50
2019-03-20T11:25:35.230Z,13.50
2019-03-20T11:28:04.325Z,13.90
2019-03-20T11:30:33.936Z,14.40
2019-03-20T11:33:02.839Z,14.80
2019-03-20T11:35:31.947Z,15.10
2019-03-20T11:38:01.007Z,15.30
2019-03-20T11:40:31.470Z,15.50
2019-03-20T11:43:00.447Z,15.60
2019-03-20T11:45:29.421Z,15.80
2019-03-20T11:47:58.524Z,15.90
2019-03-20T11:50:38.435Z,16.20
2019-03-20T11:53:08.191Z,16.00
2019-03-20T11:55:37.270Z,16.30
2019-03-20T11:58:07.058Z,16.30
2019-03-20T12:00:36.162Z,16.40
2019-03-20T12:03:05.520Z,16.60
2019-03-20T12:05:34.382Z,17.00
2019-03-20T12:08:03.544Z,17.20
2019-03-20T12:10:36.523Z,17.30
2019-03-20T12:13:05.453Z,17.50
2019-03-20T12:15:34.334Z,17.30
2019-03-20T12:18:03.183Z,17.30
2019-03-20T12:20:32.159Z,17.60
2019-03-20T12:23:01.195Z,17.70
2019-03-20T12:25:40.681Z,17.70
2019-03-20T12:28:09.560Z,17.80
2019-03-20T12:30:41.447Z,17.40
2019-03-20T12:33:10.358Z,17.60
2019-03-20T12:35:42.645Z,17.90
2019-03-20T12:38:14.716Z,18.20
2019-03-20T12:40:42.242Z,18.10
2019-03-20T12:43:11.131Z,18.40
2019-03-20T12:45:40.494Z,18.70
2019-03-20T12:50:45.717Z,19.40
2019-03-20T12:53:23.740Z,19.40
2019-03-20T12:55:52.748Z,19.30
2019-03-20T12:58:21.533Z,18.90
2019-03-20T13:00:50.436Z,19.20
2019-03-20T13:03:19.232Z,19.40
2019-03-20T13:05:48.128Z,19.50
2019-03-20T13:08:16.971Z,19.70
2019-03-20T13:10:45.921Z,19.70
2019-03-20T13:13:14.850Z,19.70
2019-03-20T13:15:44.169Z,19.70
2019-03-20T13:18:12.997Z,19.90
2019-03-20T13:20:42.221Z,19.80
2019-03-20T13:23:14.358Z,19.40
2019-03-20T13:25:43.475Z,19.40
2019-03-20T13:28:12.297Z,19.00
2019-03-20T13:30:50.530Z,19.00
2019-03-20T13:33:25.753Z,19.10
2019-03-20T13:35:51.110Z,19.30
2019-03-20T13:38:19.932Z,19.40
2019-03-20T13:40:48.890Z,19.40
2019-03-20T13:43:17.899Z,19.50
2019-03-20T13:45:46.754Z,19.50
2019-03-20T13:48:15.659Z,19.40
2019-03-20T13:50:44.641Z,19.10
2019-03-20T13:53:15.325Z,18.90
2019-03-20T13:55:44.456Z,19.00
2019-03-20T13:58:13.454Z,18.90
2019-03-20T14:00:42.448Z,18.50
2019-03-20T14:03:11.694Z,18.80
2019-03-20T14:05:40.628Z,19.10
2019-03-20T14:08:09.468Z,19.30
2019-03-20T14:10:49.505Z,19.50
2019-03-20T14:13:08.939Z,19.60
2019-03-20T14:15:37.847Z,19.70
2019-03-20T14:18:06.771Z,19.60
2019-03-20T14:20:35.665Z,19.60
2019-03-20T14:23:04.588Z,19.70
2019-03-20T14:25:33.710Z,19.80
2019-03-20T14:28:02.600Z,20.00
2019-03-20T14:30:33.670Z,20.00
2019-03-20T14:33:02.772Z,20.20
2019-03-20T14:35:31.701Z,20.10
2019-03-20T14:38:00.696Z,20.20
2019-03-20T14:40:36.845Z,20.10
2019-03-20T14:43:06.161Z,20.10
2019-03-20T14:48:31.973Z,20.60
2019-03-20T14:51:00.824Z,20.40
2019-03-20T14:53:29.864Z,20.10
2019-03-20T14:55:58.748Z,19.60
2019-03-20T14:58:27.611Z,19.00
2019-03-20T15:00:56.598Z,18.60
2019-03-20T15:03:25.475Z,18.20
2019-03-20T15:05:54.390Z,17.70
2019-03-20T15:08:23.182Z,17.30
2019-03-20T15:10:53.815Z,17.00
2019-03-20T15:13:22.611Z,16.80
2019-03-20T15:16:06.755Z,16.60
2019-03-20T15:18:35.566Z,16.30
2019-03-20T15:21:04.420Z,16.10
2019-03-20T15:23:33.301Z,16.00
2019-03-20T15:26:02.220Z,15.70
2019-03-20T15:28:30.994Z,15.40
2019-03-20T15:30:59.873Z,15.30
2019-03-20T15:33:28.890Z,15.00
2019-03-20T15:35:57.905Z,14.80
2019-03-20T15:38:26.968Z,14.70
2019-03-20T15:40:56.539Z,14.60
2019-03-20T15:43:25.587Z,14.50
2019-03-20T17:51:04.806Z,10.80
2019-03-20T17:53:33.987Z,10.90
2019-03-20T17:56:20.497Z,11.00
2019-03-20T17:58:49.346Z,10.90
2019-03-20T18:01:18.241Z,10.70
2019-03-20T18:03:47.090Z,10.60
2019-03-20T18:06:16.159Z,10.50
2019-03-20T18:08:45.419Z,10.50
2019-03-20T18:11:14.539Z,10.40
2019-03-20T18:13:43.795Z,10.40
2019-03-20T18:16:15.918Z,10.30
2019-03-20T18:18:49.739Z,10.30
2019-03-20T18:21:19.259Z,10.30
2019-03-20T18:23:48.752Z,10.20
2019-03-20T18:26:18.035Z,10.20
2019-03-20T18:28:49.847Z,10.10
2019-03-20T18:31:19.981Z,10.10
2019-03-20T18:34:31.406Z,10.00
2019-03-20T18:36:59.391Z,9.90
2019-03-20T18:42:14.789Z,9.80
2019-03-20T18:44:43.791Z,9.70
2019-03-20T18:47:12.604Z,9.70
2019-03-20T18:49:41.528Z,9.60
2019-03-20T18:52:10.343Z,9.60
2019-03-20T18:54:39.131Z,9.60
2019-03-20T18:57:07.960Z,9.60
2019-03-20T18:59:36.797Z,9.50
2019-03-20T19:02:05.587Z,9.50
2019-03-20T19:04:34.470Z,9.40
2019-03-20T19:07:03.241Z,9.40
2019-03-20T19:09:32.390Z,9.40
2019-03-20T19:12:08.536Z,9.40
2019-03-20T19:14:31.836Z,9.30
2019-03-20T19:17:00.707Z,9.20
2019-03-20T19:19:29.769Z,9.20
2019-03-20T19:22:02.811Z,9.10
2019-03-20T19:24:31.697Z,9.10
2019-03-20T19:27:00.559Z,9.00
2019-03-20T19:29:29.411Z,9.00
2019-03-20T19:31:58.244Z,9.00
2019-03-20T19:34:27.122Z,8.90
2019-03-20T19:36:56.270Z,8.90
2019-03-20T19:39:25.164Z,8.80
2019-03-20T19:41:54.037Z,8.70
2019-03-20T19:44:22.916Z,8.60
2019-03-20T19:46:51.730Z,8.60
2019-03-20T19:49:20.534Z,8.50
2019-03-20T19:51:49.353Z,8.40
2019-03-20T19:54:18.147Z,8.40
2019-03-20T19:56:47.051Z,8.30
2019-03-20T19:59:15.848Z,8.30
2019-03-20T20:01:44.840Z,8.30
2019-03-20T20:04:14.517Z,8.30
2019-03-20T20:06:43.339Z,8.30
2019-03-20T20:09:12.454Z,8.20
2019-03-20T20:11:41.460Z,8.10
2019-03-20T20:14:10.236Z,8.00
2019-03-20T20:16:39.163Z,7.90
2019-03-20T20:19:08.147Z,7.90
2019-03-20T20:21:36.933Z,7.80
2019-03-20T20:24:05.783Z,7.80
2019-03-20T20:26:34.648Z,7.70
2019-03-20T20:29:06.532Z,7.60
2019-03-20T20:31:35.386Z,7.60
2019-03-20T20:34:04.500Z,7.50
2019-03-20T20:36:33.414Z,7.50
2019-03-20T20:39:02.322Z,7.40
2019-03-20T20:41:31.225Z,7.40
2019-03-20T20:44:00.126Z,7.30
2019-03-20T20:46:29.024Z,7.30
2019-03-20T20:48:57.874Z,7.30
2019-03-20T20:51:26.691Z,7.20
2019-03-20T20:53:55.570Z,7.10
2019-03-20T20:56:24.552Z,7.10
2019-03-20T20:58:55.134Z,7.10
2019-03-20T21:01:24.058Z,7.00
2019-03-20T21:03:52.984Z,7.00
2019-03-20T21:06:21.838Z,7.00
2019-03-20T21:08:50.663Z,7.00
2019-03-20T21:11:19.561Z,7.00
2019-03-20T21:13:48.753Z,6.90
2019-03-20T21:16:17.689Z,6.90
2019-03-20T21:18:49.869Z,6.90
2019-03-20T21:21:19.311Z,7.10
2019-03-20T21:24:21.794Z,7.20
2019-03-20T21:27:05.946Z,7.10
2019-03-20T21:29:53.891Z,7.10
2019-03-20T21:32:43.854Z,7.00
2019-03-20T21:35:31.258Z,7.00
2019-03-20T21:38:07.053Z,6.90
2019-03-20T21:40:39.160Z,6.90
2019-03-20T21:43:43.207Z,6.90
2019-03-20T21:46:20.893Z,6.90
2019-03-20T21:48:49.855Z,6.90
2019-03-20T21:51:18.748Z,6.80
2019-03-20T21:54:08.990Z,6.80
2019-03-20T21:57:10.309Z,6.80
2019-03-20T22:00:00.418Z,6.80
2019-03-20T22:02:41.524Z,6.70
2019-03-20T22:05:23.067Z,6.70
2019-03-20T22:07:46.931Z,6.70
2019-03-20T22:10:46.135Z,6.70
2019-03-20T22:13:20.969Z,6.70
2019-03-20T22:16:20.302Z,6.70
2019-03-20T22:19:01.649Z,6.70
2019-03-20T22:22:07.434Z,6.70
2019-03-20T22:25:00.500Z,6.70
2019-03-20T22:27:59.460Z,6.70
2019-03-20T22:30:28.761Z,6.70
2019-03-20T22:33:30.080Z,6.70
2019-03-20T22:35:59.292Z,6.70
2019-03-20T22:38:43.163Z,6.70
2019-03-20T22:41:27.303Z,6.70
2019-03-20T22:43:59.165Z,6.70
2019-03-20T22:47:05.081Z,6.70
2019-03-20T22:50:00.419Z,6.70
2019-03-20T22:53:01.600Z,6.70
2019-03-20T22:55:46.143Z,6.70
2019-03-20T22:58:44.737Z,6.70
2019-03-20T23:01:16.969Z,6.70
2019-03-20T23:03:49.233Z,6.70
2019-03-20T23:06:18.628Z,6.70
2019-03-20T23:08:47.727Z,6.70
2019-03-20T23:11:16.719Z,6.70
2019-03-20T23:13:46.063Z,6.70
2019-03-20T23:16:18.183Z,6.80
2019-03-20T23:18:47.223Z,6.80
2019-03-20T23:21:16.043Z,6.70
2019-03-20T23:23:45.018Z,6.70
2019-03-20T23:26:14.326Z,6.80
2019-03-20T23:28:58.643Z,6.70
2019-03-20T23:31:27.682Z,6.80
2019-03-20T23:33:56.767Z,6.80
2019-03-20T23:36:26.837Z,6.80
2019-03-20T23:38:55.707Z,6.70
2019-03-20T23:41:25.550Z,6.70
2019-03-20T23:43:55.103Z,6.70
2019-03-20T23:46:24.456Z,6.70
2019-03-20T23:49:05.608Z,6.70
2019-03-20T23:51:36.407Z,6.70
2019-03-20T23:54:08.685Z,6.70
2019-03-20T23:56:41.970Z,6.60
2019-03-20T23:59:11.142Z,6.60
